sensor_id;sensor_type;location;lat;lon;timestamp;temperature;humidity
21582;DHT22;10952;50.836;4.348;2023-10-19T00:01:21;17.60;99.90
21582;DHT22;10952;50.836;4.348;2023-10-19T00:03:54;17.70;99.90
21582;DHT22;10952;50.836;4.348;2023-10-19T00:06:22;17.70;99.90
21582;DHT22;10952;50.836;4.348;2023-10-19T00:08:49;17.70;99.90
21582;DHT22;10952;50.836;4.348;2023-10-19T00:11:20;17.60;99.90
21582;DHT22;10952;50.836;4.348;2023-10-19T00:13:51;17.60;99.90
21582;DHT22;10952;50.836;4.348;2023-10-19T00:16:24;17.50;99.90
21582;DHT22;10952;50.836;4.348;2023-10-19T00:19:00;17.60;99.90
21582;DHT22;10952;50.836;4.348;2023-10-19T00:21:26;17.60;99.90
21582;DHT22;10952;50.836;4.348;2023-10-19T00:23:55;17.60;99.90
21582;DHT22;10952;50.836;4.348;2023-10-19T00:26:30;17.60;99.90
21582;DHT22;10952;50.836;4.348;2023-10-19T00:28:56;17.70;99.90
21582;DHT22;10952;50.836;4.348;2023-10-19T00:31:27;17.70;99.90
21582;DHT22;10952;50.836;4.348;2023-10-19T00:33:59;17.70;99.90
21582;DHT22;10952;50.836;4.348;2023-10-19T00:36:26;17.70;99.90
21582;DHT22;10952;50.836;4.348;2023-10-19T00:38:53;17.70;99.90
21582;DHT22;10952;50.836;4.348;2023-10-19T00:41:24;17.70;99.90
21582;DHT22;10952;50.836;4.348;2023-10-19T00:43:57;17.60;99.90
21582;DHT22;10952;50.836;4.348;2023-10-19T00:46:40;17.60;99.90
21582;DHT22;10952;50.836;4.348;2023-10-19T00:49:09;17.50;99.90
21582;DHT22;10952;50.836;4.348;2023-10-19T00:51:51;17.50;99.90
21582;DHT22;10952;50.836;4.348;2023-10-19T00:54:33;17.50;99.90
21582;DHT22;10952;50.836;4.348;2023-10-19T00:57:05;17.60;99.90
21582;DHT22;10952;50.836;4.348;2023-10-19T00:59:36;17.60;99.90
21582;DHT22;10952;50.836;4.348;2023-10-19T01:02:09;17.60;99.90
21582;DHT22;10952;50.836;4.348;2023-10-19T01:04:51;17.60;99.90
21582;DHT22;10952;50.836;4.348;2023-10-19T01:07:32;17.50;99.90
21582;DHT22;10952;50.836;4.348;2023-10-19T01:10:05;17.50;99.90
21582;DHT22;10952;50.836;4.348;2023-10-19T01:12:33;17.60;99.90
21582;DHT22;10952;50.836;4.348;2023-10-19T01:15:19;17.50;99.90
21582;DHT22;10952;50.836;4.348;2023-10-19T01:17:58;17.50;99.90
21582;DHT22;10952;50.836;4.348;2023-10-19T01:20:26;17.50;99.90
21582;DHT22;10952;50.836;4.348;2023-10-19T01:23:03;17.50;99.90
21582;DHT22;10952;50.836;4.348;2023-10-19T01:28:31;17.50;99.90
21582;DHT22;10952;50.836;4.348;2023-10-19T01:31:10;17.50;99.90
21582;DHT22;10952;50.836;4.348;2023-10-19T01:33:43;17.40;99.90
21582;DHT22;10952;50.836;4.348;2023-10-19T01:36:10;17.40;99.90
21582;DHT22;10952;50.836;4.348;2023-10-19T01:38:40;17.30;99.90
21582;DHT22;10952;50.836;4.348;2023-10-19T01:41:07;17.20;99.90
21582;DHT22;10952;50.836;4.348;2023-10-19T01:43:44;17.30;99.90
21582;DHT22;10952;50.836;4.348;2023-10-19T01:46:12;17.30;99.90
21582;DHT22;10952;50.836;4.348;2023-10-19T01:48:42;17.50;99.90
21582;DHT22;10952;50.836;4.348;2023-10-19T01:51:10;17.50;99.90
21582;DHT22;10952;50.836;4.348;2023-10-19T01:53:37;17.60;99.90
21582;DHT22;10952;50.836;4.348;2023-10-19T01:56:09;17.50;99.90
21582;DHT22;10952;50.836;4.348;2023-10-19T01:58:39;17.50;99.90
21582;DHT22;10952;50.836;4.348;2023-10-19T02:01:06;17.40;99.90
21582;DHT22;10952;50.836;4.348;2023-10-19T02:03:39;17.50;99.90
21582;DHT22;10952;50.836;4.348;2023-10-19T02:06:09;17.50;99.90
21582;DHT22;10952;50.836;4.348;2023-10-19T02:08:50;17.40;99.90
21582;DHT22;10952;50.836;4.348;2023-10-19T02:11:19;17.50;99.90
21582;DHT22;10952;50.836;4.348;2023-10-19T02:13:46;17.40;99.90
21582;DHT22;10952;50.836;4.348;2023-10-19T02:16:13;17.30;99.90
21582;DHT22;10952;50.836;4.348;2023-10-19T02:18:42;17.30;99.90
21582;DHT22;10952;50.836;4.348;2023-10-19T02:21:08;17.20;99.90
21582;DHT22;10952;50.836;4.348;2023-10-19T02:23:40;17.20;99.90
21582;DHT22;10952;50.836;4.348;2023-10-19T02:26:08;17.20;99.90
21582;DHT22;10952;50.836;4.348;2023-10-19T02:28:35;17.10;99.90
21582;DHT22;10952;50.836;4.348;2023-10-19T02:31:03;17.10;99.90
21582;DHT22;10952;50.836;4.348;2023-10-19T02:33:37;17.10;99.90
21582;DHT22;10952;50.836;4.348;2023-10-19T02:36:03;17.20;99.90
21582;DHT22;10952;50.836;4.348;2023-10-19T02:38:29;17.20;99.90
21582;DHT22;10952;50.836;4.348;2023-10-19T02:40:55;17.10;99.90
21582;DHT22;10952;50.836;4.348;2023-10-19T02:43:21;17.10;99.90
21582;DHT22;10952;50.836;4.348;2023-10-19T02:45:49;17.00;99.90
21582;DHT22;10952;50.836;4.348;2023-10-19T02:48:16;16.90;99.90
21582;DHT22;10952;50.836;4.348;2023-10-19T02:50:42;16.90;99.90
21582;DHT22;10952;50.836;4.348;2023-10-19T02:53:08;16.90;99.90
21582;DHT22;10952;50.836;4.348;2023-10-19T02:55:38;16.90;99.90
21582;DHT22;10952;50.836;4.348;2023-10-19T02:58:06;16.90;99.90
21582;DHT22;10952;50.836;4.348;2023-10-19T03:00:31;16.80;99.90
21582;DHT22;10952;50.836;4.348;2023-10-19T03:03:02;16.90;99.90
21582;DHT22;10952;50.836;4.348;2023-10-19T03:05:30;17.00;99.90
21582;DHT22;10952;50.836;4.348;2023-10-19T03:07:56;16.90;99.90
21582;DHT22;10952;50.836;4.348;2023-10-19T03:10:22;17.00;99.90
21582;DHT22;10952;50.836;4.348;2023-10-19T03:13:08;16.90;99.90
21582;DHT22;10952;50.836;4.348;2023-10-19T03:15:34;16.90;99.90
21582;DHT22;10952;50.836;4.348;2023-10-19T03:18:01;17.00;99.90
21582;DHT22;10952;50.836;4.348;2023-10-19T03:20:28;17.00;99.90
21582;DHT22;10952;50.836;4.348;2023-10-19T03:22:54;17.00;99.90
21582;DHT22;10952;50.836;4.348;2023-10-19T03:25:25;17.10;99.90
21582;DHT22;10952;50.836;4.348;2023-10-19T03:28:09;17.10;99.90
21582;DHT22;10952;50.836;4.348;2023-10-19T03:30:37;17.10;99.90
21582;DHT22;10952;50.836;4.348;2023-10-19T03:33:06;17.00;99.90
21582;DHT22;10952;50.836;4.348;2023-10-19T03:35:37;17.10;99.90
21582;DHT22;10952;50.836;4.348;2023-10-19T03:38:04;17.00;99.90
21582;DHT22;10952;50.836;4.348;2023-10-19T03:40:44;17.00;99.90
21582;DHT22;10952;50.836;4.348;2023-10-19T03:43:20;17.10;99.90
21582;DHT22;10952;50.836;4.348;2023-10-19T03:45:49;17.10;99.90
21582;DHT22;10952;50.836;4.348;2023-10-19T03:48:19;17.10;99.90
21582;DHT22;10952;50.836;4.348;2023-10-19T03:51:00;17.20;99.90
21582;DHT22;10952;50.836;4.348;2023-10-19T03:53:28;17.10;99.90
21582;DHT22;10952;50.836;4.348;2023-10-19T03:55:53;17.10;99.90
21582;DHT22;10952;50.836;4.348;2023-10-19T03:58:20;17.10;99.90
21582;DHT22;10952;50.836;4.348;2023-10-19T04:00:47;17.10;99.90
21582;DHT22;10952;50.836;4.348;2023-10-19T04:03:15;17.20;99.90
21582;DHT22;10952;50.836;4.348;2023-10-19T04:05:43;17.20;99.90
21582;DHT22;10952;50.836;4.348;2023-10-19T04:08:13;17.20;99.90
21582;DHT22;10952;50.836;4.348;2023-10-19T04:10:40;17.20;99.90
21582;DHT22;10952;50.836;4.348;2023-10-19T04:13:11;17.20;99.90
21582;DHT22;10952;50.836;4.348;2023-10-19T04:15:37;17.20;99.90
21582;DHT22;10952;50.836;4.348;2023-10-19T04:18:03;17.20;99.90
21582;DHT22;10952;50.836;4.348;2023-10-19T04:20:37;17.20;99.90
21582;DHT22;10952;50.836;4.348;2023-10-19T04:23:14;17.20;99.90
21582;DHT22;10952;50.836;4.348;2023-10-19T04:25:40;17.20;99.90
21582;DHT22;10952;50.836;4.348;2023-10-19T04:28:06;17.20;99.90
21582;DHT22;10952;50.836;4.348;2023-10-19T04:30:33;17.20;99.90
21582;DHT22;10952;50.836;4.348;2023-10-19T04:32:59;17.20;99.90
21582;DHT22;10952;50.836;4.348;2023-10-19T04:35:27;17.30;99.90
21582;DHT22;10952;50.836;4.348;2023-10-19T04:37:58;17.20;99.90
21582;DHT22;10952;50.836;4.348;2023-10-19T04:40:23;17.30;99.90
21582;DHT22;10952;50.836;4.348;2023-10-19T04:42:51;17.30;99.90
21582;DHT22;10952;50.836;4.348;2023-10-19T04:45:17;17.20;99.90
21582;DHT22;10952;50.836;4.348;2023-10-19T04:47:43;17.30;99.90
21582;DHT22;10952;50.836;4.348;2023-10-19T04:50:09;17.40;99.90
21582;DHT22;10952;50.836;4.348;2023-10-19T04:52:36;17.40;99.90
21582;DHT22;10952;50.836;4.348;2023-10-19T04:55:03;17.30;99.90
21582;DHT22;10952;50.836;4.348;2023-10-19T04:57:29;17.30;99.90
21582;DHT22;10952;50.836;4.348;2023-10-19T04:59:56;17.40;99.90
21582;DHT22;10952;50.836;4.348;2023-10-19T05:02:22;17.40;99.90
21582;DHT22;10952;50.836;4.348;2023-10-19T05:04:47;17.40;99.90
21582;DHT22;10952;50.836;4.348;2023-10-19T05:07:14;17.40;99.90
21582;DHT22;10952;50.836;4.348;2023-10-19T05:09:46;17.40;99.90
21582;DHT22;10952;50.836;4.348;2023-10-19T05:12:13;17.30;99.90
21582;DHT22;10952;50.836;4.348;2023-10-19T05:14:40;17.30;99.90
21582;DHT22;10952;50.836;4.348;2023-10-19T05:17:08;17.20;99.90
21582;DHT22;10952;50.836;4.348;2023-10-19T05:19:38;17.20;99.90
21582;DHT22;10952;50.836;4.348;2023-10-19T05:22:06;17.20;99.90
21582;DHT22;10952;50.836;4.348;2023-10-19T05:24:32;17.30;99.90
21582;DHT22;10952;50.836;4.348;2023-10-19T05:26:58;17.30;99.90
21582;DHT22;10952;50.836;4.348;2023-10-19T05:29:24;17.30;99.90
21582;DHT22;10952;50.836;4.348;2023-10-19T05:31:53;17.20;99.90
21582;DHT22;10952;50.836;4.348;2023-10-19T05:34:23;17.20;99.90
21582;DHT22;10952;50.836;4.348;2023-10-19T05:36:49;17.20;99.90
21582;DHT22;10952;50.836;4.348;2023-10-19T05:39:16;17.20;99.90
21582;DHT22;10952;50.836;4.348;2023-10-19T05:41:41;17.20;99.90
21582;DHT22;10952;50.836;4.348;2023-10-19T05:44:07;17.10;99.90
21582;DHT22;10952;50.836;4.348;2023-10-19T05:46:33;17.20;99.90
21582;DHT22;10952;50.836;4.348;2023-10-19T05:48:59;17.20;99.90
21582;DHT22;10952;50.836;4.348;2023-10-19T05:51:27;17.20;99.90
21582;DHT22;10952;50.836;4.348;2023-10-19T05:53:52;17.20;99.90
21582;DHT22;10952;50.836;4.348;2023-10-19T05:56:19;17.20;99.90
21582;DHT22;10952;50.836;4.348;2023-10-19T05:58:46;17.20;99.90
21582;DHT22;10952;50.836;4.348;2023-10-19T06:01:16;17.30;99.90
21582;DHT22;10952;50.836;4.348;2023-10-19T06:03:43;17.20;99.90
21582;DHT22;10952;50.836;4.348;2023-10-19T06:06:09;17.30;99.90
21582;DHT22;10952;50.836;4.348;2023-10-19T06:08:34;17.40;99.90
21582;DHT22;10952;50.836;4.348;2023-10-19T06:11:01;17.40;99.90
21582;DHT22;10952;50.836;4.348;2023-10-19T06:13:28;17.30;99.90
21582;DHT22;10952;50.836;4.348;2023-10-19T06:15:55;17.20;99.90
21582;DHT22;10952;50.836;4.348;2023-10-19T06:18:20;17.20;99.90
21582;DHT22;10952;50.836;4.348;2023-10-19T06:20:46;17.30;99.90
21582;DHT22;10952;50.836;4.348;2023-10-19T06:23:13;17.30;99.90
21582;DHT22;10952;50.836;4.348;2023-10-19T06:25:39;17.30;99.90
21582;DHT22;10952;50.836;4.348;2023-10-19T06:28:06;17.30;99.90
21582;DHT22;10952;50.836;4.348;2023-10-19T06:30:32;17.30;99.90
21582;DHT22;10952;50.836;4.348;2023-10-19T06:32:59;17.30;99.90
21582;DHT22;10952;50.836;4.348;2023-10-19T06:35:27;17.30;99.90
21582;DHT22;10952;50.836;4.348;2023-10-19T06:37:54;17.20;99.90
21582;DHT22;10952;50.836;4.348;2023-10-19T06:40:23;17.20;99.90
21582;DHT22;10952;50.836;4.348;2023-10-19T06:42:49;17.10;99.90
21582;DHT22;10952;50.836;4.348;2023-10-19T06:45:16;17.10;99.90
21582;DHT22;10952;50.836;4.348;2023-10-19T06:47:47;17.20;99.90
21582;DHT22;10952;50.836;4.348;2023-10-19T06:50:15;17.30;99.90
21582;DHT22;10952;50.836;4.348;2023-10-19T06:52:44;17.30;99.90
21582;DHT22;10952;50.836;4.348;2023-10-19T06:55:12;17.30;99.90
21582;DHT22;10952;50.836;4.348;2023-10-19T06:57:43;17.30;99.90
21582;DHT22;10952;50.836;4.348;2023-10-19T07:00:12;17.30;99.90
21582;DHT22;10952;50.836;4.348;2023-10-19T07:02:45;17.30;99.90
21582;DHT22;10952;50.836;4.348;2023-10-19T07:05:11;17.20;99.90
21582;DHT22;10952;50.836;4.348;2023-10-19T07:07:41;17.10;99.90
21582;DHT22;10952;50.836;4.348;2023-10-19T07:10:11;17.00;99.90
21582;DHT22;10952;50.836;4.348;2023-10-19T07:12:44;17.00;99.90
21582;DHT22;10952;50.836;4.348;2023-10-19T07:15:12;17.10;99.90
21582;DHT22;10952;50.836;4.348;2023-10-19T07:17:40;17.10;99.90
21582;DHT22;10952;50.836;4.348;2023-10-19T07:20:06;17.10;99.90
21582;DHT22;10952;50.836;4.348;2023-10-19T07:22:34;17.10;99.90
21582;DHT22;10952;50.836;4.348;2023-10-19T07:25:05;17.10;99.90
21582;DHT22;10952;50.836;4.348;2023-10-19T07:27:32;17.10;99.90
21582;DHT22;10952;50.836;4.348;2023-10-19T07:30:00;17.10;99.90
21582;DHT22;10952;50.836;4.348;2023-10-19T07:32:25;17.00;99.90
21582;DHT22;10952;50.836;4.348;2023-10-19T07:34:51;17.10;99.90
21582;DHT22;10952;50.836;4.348;2023-10-19T07:37:17;17.10;99.90
21582;DHT22;10952;50.836;4.348;2023-10-19T07:39:48;17.10;99.90
21582;DHT22;10952;50.836;4.348;2023-10-19T07:42:15;17.20;99.90
21582;DHT22;10952;50.836;4.348;2023-10-19T07:44:42;17.20;99.90
21582;DHT22;10952;50.836;4.348;2023-10-19T07:47:09;17.20;99.90
21582;DHT22;10952;50.836;4.348;2023-10-19T07:49:37;17.20;99.90
21582;DHT22;10952;50.836;4.348;2023-10-19T07:52:07;17.10;99.90
21582;DHT22;10952;50.836;4.348;2023-10-19T07:54:35;17.10;99.90
21582;DHT22;10952;50.836;4.348;2023-10-19T07:57:04;17.10;99.90
21582;DHT22;10952;50.836;4.348;2023-10-19T07:59:33;17.20;99.90
21582;DHT22;10952;50.836;4.348;2023-10-19T08:02:00;17.20;99.90
21582;DHT22;10952;50.836;4.348;2023-10-19T08:04:29;17.20;99.90
21582;DHT22;10952;50.836;4.348;2023-10-19T08:06:55;17.20;99.90
21582;DHT22;10952;50.836;4.348;2023-10-19T08:09:22;17.30;99.90
21582;DHT22;10952;50.836;4.348;2023-10-19T08:11:57;17.50;99.90
21582;DHT22;10952;50.836;4.348;2023-10-19T08:14:25;17.50;99.90
21582;DHT22;10952;50.836;4.348;2023-10-19T08:16:52;17.50;99.90
21582;DHT22;10952;50.836;4.348;2023-10-19T08:19:18;17.50;99.90
21582;DHT22;10952;50.836;4.348;2023-10-19T08:21:44;17.60;99.90
21582;DHT22;10952;50.836;4.348;2023-10-19T08:24:10;17.70;99.90
21582;DHT22;10952;50.836;4.348;2023-10-19T08:26:46;17.80;99.90
21582;DHT22;10952;50.836;4.348;2023-10-19T08:29:12;17.90;99.90
21582;DHT22;10952;50.836;4.348;2023-10-19T08:31:41;17.80;99.90
21582;DHT22;10952;50.836;4.348;2023-10-19T08:34:08;17.60;99.90
21582;DHT22;10952;50.836;4.348;2023-10-19T08:36:35;17.50;99.90
21582;DHT22;10952;50.836;4.348;2023-10-19T08:39:06;17.50;99.90
21582;DHT22;10952;50.836;4.348;2023-10-19T08:41:35;17.60;99.90
21582;DHT22;10952;50.836;4.348;2023-10-19T08:44:04;17.50;99.90
21582;DHT22;10952;50.836;4.348;2023-10-19T08:46:38;17.60;99.90
21582;DHT22;10952;50.836;4.348;2023-10-19T08:49:05;17.60;99.90
21582;DHT22;10952;50.836;4.348;2023-10-19T08:51:37;17.60;99.90
21582;DHT22;10952;50.836;4.348;2023-10-19T08:54:04;17.60;99.90
21582;DHT22;10952;50.836;4.348;2023-10-19T08:56:31;17.60;99.90
21582;DHT22;10952;50.836;4.348;2023-10-19T08:58:58;17.60;99.90
21582;DHT22;10952;50.836;4.348;2023-10-19T09:01:24;17.70;99.90
21582;DHT22;10952;50.836;4.348;2023-10-19T09:03:53;17.80;99.90
21582;DHT22;10952;50.836;4.348;2023-10-19T09:06:21;17.80;99.90
21582;DHT22;10952;50.836;4.348;2023-10-19T09:08:47;17.90;99.90
21582;DHT22;10952;50.836;4.348;2023-10-19T09:11:14;17.90;99.90
21582;DHT22;10952;50.836;4.348;2023-10-19T09:13:53;18.00;99.90
21582;DHT22;10952;50.836;4.348;2023-10-19T09:16:22;18.10;99.90
21582;DHT22;10952;50.836;4.348;2023-10-19T09:18:49;18.10;99.90
21582;DHT22;10952;50.836;4.348;2023-10-19T09:21:17;18.10;99.90
21582;DHT22;10952;50.836;4.348;2023-10-19T09:23:52;18.10;99.90
21582;DHT22;10952;50.836;4.348;2023-10-19T09:26:18;18.20;99.90
21582;DHT22;10952;50.836;4.348;2023-10-19T09:28:49;18.20;99.90
21582;DHT22;10952;50.836;4.348;2023-10-19T09:31:16;18.30;99.90
21582;DHT22;10952;50.836;4.348;2023-10-19T09:33:43;18.40;99.90
21582;DHT22;10952;50.836;4.348;2023-10-19T09:36:11;18.30;99.90
21582;DHT22;10952;50.836;4.348;2023-10-19T09:38:45;18.50;99.90
21582;DHT22;10952;50.836;4.348;2023-10-19T09:41:15;18.50;99.90
21582;DHT22;10952;50.836;4.348;2023-10-19T09:43:45;18.50;99.90
21582;DHT22;10952;50.836;4.348;2023-10-19T09:46:12;18.40;99.90
21582;DHT22;10952;50.836;4.348;2023-10-19T09:48:41;18.50;99.90
21582;DHT22;10952;50.836;4.348;2023-10-19T09:51:08;18.50;99.90
21582;DHT22;10952;50.836;4.348;2023-10-19T09:53:35;18.40;99.90
21582;DHT22;10952;50.836;4.348;2023-10-19T09:56:03;18.50;99.90
21582;DHT22;10952;50.836;4.348;2023-10-19T09:58:40;18.60;99.90
21582;DHT22;10952;50.836;4.348;2023-10-19T10:01:06;19.00;99.90
21582;DHT22;10952;50.836;4.348;2023-10-19T10:03:44;19.20;99.90
21582;DHT22;10952;50.836;4.348;2023-10-19T10:09:02;19.20;99.90
21582;DHT22;10952;50.836;4.348;2023-10-19T10:11:29;19.20;99.90
21582;DHT22;10952;50.836;4.348;2023-10-19T10:13:56;19.30;99.90
21582;DHT22;10952;50.836;4.348;2023-10-19T10:16:25;19.30;99.90
21582;DHT22;10952;50.836;4.348;2023-10-19T10:18:58;19.30;99.90
21582;DHT22;10952;50.836;4.348;2023-10-19T10:21:30;19.30;99.90
21582;DHT22;10952;50.836;4.348;2023-10-19T10:24:01;19.20;99.90
21582;DHT22;10952;50.836;4.348;2023-10-19T10:26:29;19.20;99.90
21582;DHT22;10952;50.836;4.348;2023-10-19T10:29:22;19.20;99.90
21582;DHT22;10952;50.836;4.348;2023-10-19T10:31:49;19.40;99.90
21582;DHT22;10952;50.836;4.348;2023-10-19T10:37:01;19.40;99.90
21582;DHT22;10952;50.836;4.348;2023-10-19T10:39:28;19.30;99.90
21582;DHT22;10952;50.836;4.348;2023-10-19T10:41:59;19.40;99.90
21582;DHT22;10952;50.836;4.348;2023-10-19T10:44:44;19.40;99.90
21582;DHT22;10952;50.836;4.348;2023-10-19T10:50:09;19.40;99.90
21582;DHT22;10952;50.836;4.348;2023-10-19T10:52:36;19.30;99.90
21582;DHT22;10952;50.836;4.348;2023-10-19T10:55:15;19.30;99.90
21582;DHT22;10952;50.836;4.348;2023-10-19T10:57:42;19.40;99.90
21582;DHT22;10952;50.836;4.348;2023-10-19T11:00:12;19.30;99.90
21582;DHT22;10952;50.836;4.348;2023-10-19T11:02:47;19.20;99.90
21582;DHT22;10952;50.836;4.348;2023-10-19T11:05:24;19.20;99.90
21582;DHT22;10952;50.836;4.348;2023-10-19T11:08:08;19.20;99.90
21582;DHT22;10952;50.836;4.348;2023-10-19T11:10:46;19.20;99.90
21582;DHT22;10952;50.836;4.348;2023-10-19T11:13:17;19.20;99.90
21582;DHT22;10952;50.836;4.348;2023-10-19T11:15:50;19.20;99.90
21582;DHT22;10952;50.836;4.348;2023-10-19T11:18:37;19.10;99.90
21582;DHT22;10952;50.836;4.348;2023-10-19T11:21:11;19.10;99.90
21582;DHT22;10952;50.836;4.348;2023-10-19T11:26:08;19.20;99.90
21582;DHT22;10952;50.836;4.348;2023-10-19T11:28:35;19.20;99.90
21582;DHT22;10952;50.836;4.348;2023-10-19T11:31:19;19.00;99.90
21582;DHT22;10952;50.836;4.348;2023-10-19T11:33:48;19.10;99.90
21582;DHT22;10952;50.836;4.348;2023-10-19T11:36:16;19.30;99.90
21582;DHT22;10952;50.836;4.348;2023-10-19T11:38:44;19.20;99.90
21582;DHT22;10952;50.836;4.348;2023-10-19T11:41:10;19.20;99.90
21582;DHT22;10952;50.836;4.348;2023-10-19T11:43:36;19.20;99.90
21582;DHT22;10952;50.836;4.348;2023-10-19T11:46:02;19.20;99.90
21582;DHT22;10952;50.836;4.348;2023-10-19T11:48:30;19.10;99.90
21582;DHT22;10952;50.836;4.348;2023-10-19T11:50:57;19.20;99.90
21582;DHT22;10952;50.836;4.348;2023-10-19T11:53:25;19.40;99.90
21582;DHT22;10952;50.836;4.348;2023-10-19T11:55:51;19.30;99.90
21582;DHT22;10952;50.836;4.348;2023-10-19T11:58:17;19.30;99.90
21582;DHT22;10952;50.836;4.348;2023-10-19T12:00:43;19.20;99.90
21582;DHT22;10952;50.836;4.348;2023-10-19T12:03:12;19.30;99.90
21582;DHT22;10952;50.836;4.348;2023-10-19T12:05:38;19.20;99.90
21582;DHT22;10952;50.836;4.348;2023-10-19T12:08:04;19.20;99.90
21582;DHT22;10952;50.836;4.348;2023-10-19T12:10:29;19.00;99.90
21582;DHT22;10952;50.836;4.348;2023-10-19T12:13:04;19.10;99.90
21582;DHT22;10952;50.836;4.348;2023-10-19T12:15:34;19.00;99.90
21582;DHT22;10952;50.836;4.348;2023-10-19T12:17:59;19.10;99.90
21582;DHT22;10952;50.836;4.348;2023-10-19T12:20:25;19.10;99.90
21582;DHT22;10952;50.836;4.348;2023-10-19T12:22:52;19.00;99.90
21582;DHT22;10952;50.836;4.348;2023-10-19T12:25:22;19.00;99.90
21582;DHT22;10952;50.836;4.348;2023-10-19T12:28:00;19.00;99.90
21582;DHT22;10952;50.836;4.348;2023-10-19T12:30:26;19.00;99.90
21582;DHT22;10952;50.836;4.348;2023-10-19T12:33:01;18.90;99.90
21582;DHT22;10952;50.836;4.348;2023-10-19T12:35:27;19.00;99.90
21582;DHT22;10952;50.836;4.348;2023-10-19T12:38:11;19.00;99.90
21582;DHT22;10952;50.836;4.348;2023-10-19T12:40:46;19.10;99.90
21582;DHT22;10952;50.836;4.348;2023-10-19T12:43:12;19.20;99.90
21582;DHT22;10952;50.836;4.348;2023-10-19T12:45:39;19.40;99.90
21582;DHT22;10952;50.836;4.348;2023-10-19T12:48:05;19.80;99.90
21582;DHT22;10952;50.836;4.348;2023-10-19T12:50:33;20.10;99.90
21582;DHT22;10952;50.836;4.348;2023-10-19T12:52:59;20.30;99.90
21582;DHT22;10952;50.836;4.348;2023-10-19T12:55:25;20.70;99.90
21582;DHT22;10952;50.836;4.348;2023-10-19T12:57:53;20.70;99.90
21582;DHT22;10952;50.836;4.348;2023-10-19T13:00:19;21.00;99.90
21582;DHT22;10952;50.836;4.348;2023-10-19T13:03:03;21.50;99.90
21582;DHT22;10952;50.836;4.348;2023-10-19T13:05:36;21.60;99.90
21582;DHT22;10952;50.836;4.348;2023-10-19T13:08:12;21.70;99.90
21582;DHT22;10952;50.836;4.348;2023-10-19T13:10:42;21.30;99.90
21582;DHT22;10952;50.836;4.348;2023-10-19T13:13:10;21.10;99.90
21582;DHT22;10952;50.836;4.348;2023-10-19T13:15:45;21.00;99.90
21582;DHT22;10952;50.836;4.348;2023-10-19T13:18:12;20.90;99.90
21582;DHT22;10952;50.836;4.348;2023-10-19T13:20:50;20.70;99.90
21582;DHT22;10952;50.836;4.348;2023-10-19T13:23:18;20.70;99.90
21582;DHT22;10952;50.836;4.348;2023-10-19T13:25:47;20.60;99.90
21582;DHT22;10952;50.836;4.348;2023-10-19T13:28:27;20.40;99.90
21582;DHT22;10952;50.836;4.348;2023-10-19T13:30:53;20.40;99.90
21582;DHT22;10952;50.836;4.348;2023-10-19T13:33:20;20.40;99.90
21582;DHT22;10952;50.836;4.348;2023-10-19T13:35:52;20.30;99.90
21582;DHT22;10952;50.836;4.348;2023-10-19T13:38:18;20.30;99.90
21582;DHT22;10952;50.836;4.348;2023-10-19T13:40:48;20.30;99.90
21582;DHT22;10952;50.836;4.348;2023-10-19T13:43:16;20.20;99.90
21582;DHT22;10952;50.836;4.348;2023-10-19T13:45:44;20.20;99.90
21582;DHT22;10952;50.836;4.348;2023-10-19T13:48:11;20.10;99.90
21582;DHT22;10952;50.836;4.348;2023-10-19T13:50:42;20.10;99.90
21582;DHT22;10952;50.836;4.348;2023-10-19T13:53:09;20.00;99.90
21582;DHT22;10952;50.836;4.348;2023-10-19T13:55:35;20.20;99.90
21582;DHT22;10952;50.836;4.348;2023-10-19T13:58:04;20.10;99.90
21582;DHT22;10952;50.836;4.348;2023-10-19T14:00:30;20.10;99.90
21582;DHT22;10952;50.836;4.348;2023-10-19T14:02:56;20.20;99.90
21582;DHT22;10952;50.836;4.348;2023-10-19T14:05:23;20.10;99.90
21582;DHT22;10952;50.836;4.348;2023-10-19T14:07:50;20.00;99.90
21582;DHT22;10952;50.836;4.348;2023-10-19T14:10:17;20.00;99.90
21582;DHT22;10952;50.836;4.348;2023-10-19T14:12:45;20.10;99.90
21582;DHT22;10952;50.836;4.348;2023-10-19T14:15:12;20.10;99.90
21582;DHT22;10952;50.836;4.348;2023-10-19T14:17:39;20.20;99.90
21582;DHT22;10952;50.836;4.348;2023-10-19T14:20:05;20.20;99.90
21582;DHT22;10952;50.836;4.348;2023-10-19T14:22:31;20.20;99.90
21582;DHT22;10952;50.836;4.348;2023-10-19T14:25:00;20.30;99.90
21582;DHT22;10952;50.836;4.348;2023-10-19T14:27:26;20.40;99.90
21582;DHT22;10952;50.836;4.348;2023-10-19T14:29:52;20.40;99.90
21582;DHT22;10952;50.836;4.348;2023-10-19T14:32:17;20.50;99.90
21582;DHT22;10952;50.836;4.348;2023-10-19T14:34:44;20.50;99.90
21582;DHT22;10952;50.836;4.348;2023-10-19T14:37:09;20.40;99.90
21582;DHT22;10952;50.836;4.348;2023-10-19T14:39:35;20.50;99.90
21582;DHT22;10952;50.836;4.348;2023-10-19T14:42:01;20.40;99.90
21582;DHT22;10952;50.836;4.348;2023-10-19T14:44:27;20.50;99.90
21582;DHT22;10952;50.836;4.348;2023-10-19T14:46:53;20.40;99.90
21582;DHT22;10952;50.836;4.348;2023-10-19T14:49:18;20.40;99.90
21582;DHT22;10952;50.836;4.348;2023-10-19T14:51:44;20.40;99.90
21582;DHT22;10952;50.836;4.348;2023-10-19T14:54:10;20.40;99.90
21582;DHT22;10952;50.836;4.348;2023-10-19T14:56:37;20.50;99.90
21582;DHT22;10952;50.836;4.348;2023-10-19T14:59:03;20.70;99.90
21582;DHT22;10952;50.836;4.348;2023-10-19T15:01:31;20.70;99.90
21582;DHT22;10952;50.836;4.348;2023-10-19T15:03:57;20.60;99.90
21582;DHT22;10952;50.836;4.348;2023-10-19T15:06:22;20.60;99.90
21582;DHT22;10952;50.836;4.348;2023-10-19T15:08:48;20.50;99.90
21582;DHT22;10952;50.836;4.348;2023-10-19T15:11:18;20.30;99.90
21582;DHT22;10952;50.836;4.348;2023-10-19T15:13:46;20.10;99.90
21582;DHT22;10952;50.836;4.348;2023-10-19T15:16:12;20.10;99.90
21582;DHT22;10952;50.836;4.348;2023-10-19T15:18:38;19.90;99.90
21582;DHT22;10952;50.836;4.348;2023-10-19T15:21:08;19.90;99.90
21582;DHT22;10952;50.836;4.348;2023-10-19T15:23:34;19.90;99.90
21582;DHT22;10952;50.836;4.348;2023-10-19T15:26:00;20.00;99.90
21582;DHT22;10952;50.836;4.348;2023-10-19T15:28:27;20.00;99.90
21582;DHT22;10952;50.836;4.348;2023-10-19T15:30:59;20.00;99.90
21582;DHT22;10952;50.836;4.348;2023-10-19T15:33:28;20.00;99.90
21582;DHT22;10952;50.836;4.348;2023-10-19T15:35:56;20.10;99.90
21582;DHT22;10952;50.836;4.348;2023-10-19T15:38:23;20.00;99.90
21582;DHT22;10952;50.836;4.348;2023-10-19T15:40:49;20.00;99.90
21582;DHT22;10952;50.836;4.348;2023-10-19T15:43:15;20.00;99.90
21582;DHT22;10952;50.836;4.348;2023-10-19T15:45:41;20.00;99.90
21582;DHT22;10952;50.836;4.348;2023-10-19T15:48:10;19.90;99.90
21582;DHT22;10952;50.836;4.348;2023-10-19T15:50:39;19.90;99.90
21582;DHT22;10952;50.836;4.348;2023-10-19T15:53:07;19.80;99.90
21582;DHT22;10952;50.836;4.348;2023-10-19T15:55:32;19.80;99.90